createdAt,value
2023-02-19T00:01:31.928Z,14.02
2023-02-19T00:04:11.761Z,14.00
2023-02-19T00:06:38.635Z,14.03
2023-02-19T00:09:05.815Z,14.04
2023-02-19T00:11:35.208Z,14.03
2023-02-19T00:14:03.529Z,14.04
2023-02-19T00:16:39.574Z,14.03
2023-02-19T00:19:12.692Z,14.05
2023-02-19T00:21:39.441Z,14.07
2023-02-19T00:24:07.848Z,14.08
2023-02-19T00:26:34.798Z,14.10
2023-02-19T00:29:02.155Z,14.11
2023-02-19T00:31:33.439Z,14.10
2023-02-19T00:34:06.133Z,14.09
2023-02-19T00:36:37.461Z,14.10
2023-02-19T00:39:06.656Z,14.12
2023-02-19T00:41:33.595Z,14.12
2023-02-19T00:44:07.013Z,14.11
2023-02-19T00:46:37.178Z,14.13
2023-02-19T00:49:06.762Z,14.12
2023-02-19T00:51:37.694Z,14.11
2023-02-19T00:54:05.602Z,14.13
2023-02-19T00:56:32.874Z,14.14
2023-02-19T00:59:00.043Z,14.15
2023-02-19T01:01:27.010Z,14.16
2023-02-19T01:03:53.894Z,14.15
2023-02-19T01:06:21.561Z,14.12
2023-02-19T01:08:48.855Z,14.12
2023-02-19T01:11:17.116Z,14.11
2023-02-19T01:13:44.310Z,14.11
2023-02-19T01:16:21.129Z,14.09
2023-02-19T01:18:48.762Z,14.09
2023-02-19T01:21:21.813Z,14.08
2023-02-19T01:23:50.633Z,14.09
2023-02-19T01:26:26.600Z,14.08
2023-02-19T01:28:53.379Z,14.11
2023-02-19T01:31:23.560Z,14.09
2023-02-19T01:33:54.787Z,14.09
2023-02-19T01:36:22.124Z,14.10
2023-02-19T01:38:49.734Z,14.11
2023-02-19T01:41:21.554Z,14.08
2023-02-19T01:44:07.918Z,14.03
2023-02-19T01:46:51.348Z,14.02
2023-02-19T01:49:25.909Z,13.99
2023-02-19T01:52:00.413Z,13.97
2023-02-19T01:54:32.456Z,13.96
2023-02-19T01:57:02.717Z,13.93
2023-02-19T01:59:29.484Z,13.92
2023-02-19T02:01:56.458Z,13.92
2023-02-19T02:04:23.596Z,13.92
2023-02-19T02:06:56.012Z,13.89
2023-02-19T02:09:46.628Z,13.90
2023-02-19T02:12:13.836Z,13.92
2023-02-19T02:14:44.444Z,13.91
2023-02-19T02:17:21.110Z,13.91
2023-02-19T02:20:32.363Z,13.87
2023-02-19T02:23:37.812Z,13.90
2023-02-19T02:26:40.244Z,13.90
2023-02-19T02:29:37.141Z,13.93
2023-02-19T02:32:19.579Z,13.97
2023-02-19T02:34:54.095Z,14.01
2023-02-19T02:37:21.416Z,14.07
2023-02-19T02:39:49.620Z,14.08
2023-02-19T02:42:28.827Z,14.09
2023-02-19T02:45:34.989Z,14.03
2023-02-19T02:48:21.123Z,14.05
2023-02-19T02:50:55.453Z,14.01
2023-02-19T02:53:57.378Z,13.95
2023-02-19T02:56:26.544Z,13.92
2023-02-19T02:58:55.360Z,13.90
2023-02-19T03:01:45.508Z,13.86
2023-02-19T03:05:05.502Z,13.75
2023-02-19T03:07:56.717Z,13.67
2023-02-19T03:10:36.366Z,13.67
2023-02-19T03:13:34.367Z,13.64
2023-02-19T03:16:31.479Z,13.62
2023-02-19T03:19:18.411Z,13.64
2023-02-19T03:21:54.579Z,13.59
2023-02-19T03:24:47.146Z,13.57
2023-02-19T03:27:17.060Z,13.55
2023-02-19T03:29:50.256Z,13.54
2023-02-19T03:32:48.283Z,13.47
2023-02-19T03:35:27.829Z,13.47
2023-02-19T03:38:26.843Z,13.46
2023-02-19T03:41:14.389Z,13.36
2023-02-19T03:43:57.910Z,13.30
2023-02-19T03:46:54.949Z,13.23
2023-02-19T03:49:48.884Z,13.15
2023-02-19T03:52:38.477Z,13.11
2023-02-19T03:55:18.205Z,13.07
2023-02-19T03:57:56.199Z,12.99
2023-02-19T04:00:41.096Z,12.95
2023-02-19T04:03:52.111Z,12.87
2023-02-19T04:06:27.777Z,12.83
2023-02-19T04:08:59.550Z,12.81
2023-02-19T04:11:28.993Z,12.80
2023-02-19T04:14:09.627Z,12.76
2023-02-19T04:16:42.432Z,12.75
2023-02-19T04:19:14.107Z,12.74
2023-02-19T04:21:42.172Z,12.73
2023-02-19T04:24:15.264Z,12.67
2023-02-19T04:26:43.151Z,12.69
2023-02-19T04:29:09.973Z,12.72
2023-02-19T04:31:37.873Z,12.71
2023-02-19T04:34:05.185Z,12.71
2023-02-19T04:36:33.103Z,12.70
2023-02-19T04:39:00.006Z,12.71
2023-02-19T04:41:26.852Z,12.71
2023-02-19T04:43:53.703Z,12.73
2023-02-19T04:46:20.525Z,12.73
2023-02-19T04:48:47.378Z,12.73
2023-02-19T04:51:14.578Z,12.74
2023-02-19T04:53:42.631Z,12.75
2023-02-19T04:56:13.859Z,12.76
2023-02-19T04:58:42.291Z,12.79
2023-02-19T05:01:10.344Z,12.80
2023-02-19T05:03:38.064Z,12.81
2023-02-19T05:06:08.035Z,12.79
2023-02-19T05:08:34.753Z,12.73
2023-02-19T05:11:04.482Z,12.79
2023-02-19T05:13:31.949Z,12.80
2023-02-19T05:16:01.853Z,12.79
2023-02-19T05:18:28.674Z,12.73
2023-02-19T05:20:57.248Z,12.80
2023-02-19T05:23:24.355Z,12.82
2023-02-19T05:25:51.195Z,12.85
2023-02-19T05:28:18.271Z,12.86
2023-02-19T05:30:51.070Z,12.86
2023-02-19T05:33:20.939Z,12.88
2023-02-19T05:35:50.770Z,12.88
2023-02-19T05:38:18.802Z,12.89
2023-02-19T05:40:46.320Z,12.90
2023-02-19T05:43:14.232Z,12.91
2023-02-19T05:45:41.381Z,12.93
2023-02-19T05:48:09.372Z,12.92
2023-02-19T05:50:39.632Z,12.93
2023-02-19T05:53:12.608Z,12.93
2023-02-19T05:55:39.424Z,12.92
2023-02-19T05:58:06.237Z,12.91
2023-02-19T06:00:33.894Z,12.89
2023-02-19T06:03:01.598Z,12.85
2023-02-19T06:05:28.589Z,12.84
2023-02-19T06:07:55.489Z,12.83
2023-02-19T06:10:22.335Z,12.79
2023-02-19T06:12:53.393Z,12.74
2023-02-19T06:15:21.511Z,12.75
2023-02-19T06:17:48.819Z,12.75
2023-02-19T06:20:15.909Z,12.74
2023-02-19T06:22:42.685Z,12.76
2023-02-19T06:25:12.519Z,12.76
2023-02-19T06:27:39.838Z,12.77
2023-02-19T06:30:07.587Z,12.78
2023-02-19T06:32:34.386Z,12.77
2023-02-19T06:35:01.175Z,12.77
2023-02-19T06:37:29.261Z,12.76
2023-02-19T06:39:56.194Z,12.77
2023-02-19T06:42:23.077Z,12.77
2023-02-19T06:44:49.923Z,12.77
2023-02-19T06:47:16.739Z,12.78
2023-02-19T06:49:43.799Z,12.76
2023-02-19T06:52:10.658Z,12.79
2023-02-19T06:54:37.414Z,12.79
2023-02-19T06:57:04.323Z,12.78
2023-02-19T06:59:31.201Z,12.80
2023-02-19T07:01:58.039Z,12.79
2023-02-19T07:04:24.876Z,12.79
2023-02-19T07:06:51.711Z,12.78
2023-02-19T07:09:18.481Z,12.77
2023-02-19T07:11:45.274Z,12.78
2023-02-19T07:14:16.289Z,12.74
2023-02-19T07:16:44.037Z,12.74
2023-02-19T07:19:12.014Z,12.75
2023-02-19T07:21:38.816Z,12.75
2023-02-19T07:24:05.965Z,12.73
2023-02-19T07:26:33.083Z,12.72
2023-02-19T07:29:00.416Z,12.70
2023-02-19T07:31:27.890Z,12.68
2023-02-19T07:33:55.418Z,12.67
2023-02-19T07:36:23.946Z,12.67
2023-02-19T07:38:59.068Z,12.63
2023-02-19T07:41:27.406Z,12.66
2023-02-19T07:43:57.473Z,12.67
2023-02-19T07:46:24.430Z,12.67
2023-02-19T07:48:51.195Z,12.69
2023-02-19T07:51:20.013Z,12.68
2023-02-19T07:53:50.221Z,12.69
2023-02-19T07:56:17.930Z,12.67
2023-02-19T07:58:46.186Z,12.68
2023-02-19T08:01:40.929Z,12.66
2023-02-19T08:04:07.897Z,12.71
2023-02-19T08:06:34.726Z,12.72
2023-02-19T08:09:01.515Z,12.70
2023-02-19T08:11:46.637Z,12.67
2023-02-19T08:14:13.402Z,12.66
2023-02-19T08:16:43.330Z,12.66
2023-02-19T08:19:10.414Z,12.68
2023-02-19T08:21:37.229Z,12.72
2023-02-19T08:24:04.343Z,12.77
2023-02-19T08:26:31.167Z,12.80
2023-02-19T08:29:00.288Z,12.84
2023-02-19T08:31:27.727Z,12.84
2023-02-19T08:33:54.629Z,12.85
2023-02-19T08:36:21.443Z,12.85
2023-02-19T08:38:48.422Z,12.84
2023-02-19T08:41:15.885Z,12.84
2023-02-19T08:43:43.665Z,12.83
2023-02-19T08:46:12.007Z,12.83
2023-02-19T08:48:40.244Z,12.81
2023-02-19T08:51:10.852Z,12.79
2023-02-19T08:53:40.361Z,12.79
2023-02-19T08:56:10.891Z,12.79
2023-02-19T08:58:38.047Z,12.80
2023-02-19T09:01:17.712Z,12.77
2023-02-19T09:03:44.922Z,12.79
2023-02-19T09:06:18.681Z,12.80
2023-02-19T09:08:45.626Z,12.84
2023-02-19T09:11:12.929Z,12.87
2023-02-19T09:13:40.117Z,12.90
2023-02-19T09:16:07.088Z,12.91
2023-02-19T09:18:34.009Z,12.93
2023-02-19T09:21:02.821Z,12.93
2023-02-19T09:23:30.132Z,12.98
2023-02-19T09:25:59.910Z,12.98
2023-02-19T09:28:27.985Z,13.00
2023-02-19T09:30:55.345Z,13.03
2023-02-19T09:33:22.195Z,13.06
2023-02-19T09:35:48.982Z,13.09
2023-02-19T09:38:15.833Z,13.11
2023-02-19T09:40:42.718Z,13.13
2023-02-19T09:43:17.983Z,13.12
2023-02-19T09:45:44.772Z,13.16
2023-02-19T09:48:12.633Z,13.16
2023-02-19T09:50:48.919Z,13.15
2023-02-19T09:53:21.252Z,13.17
2023-02-19T09:55:48.473Z,13.21
2023-02-19T09:58:25.599Z,13.20
2023-02-19T10:00:54.819Z,13.24
2023-02-19T10:03:34.125Z,13.24
2023-02-19T10:06:16.932Z,13.24
2023-02-19T10:08:48.526Z,13.25
2023-02-19T10:11:16.097Z,13.27
2023-02-19T10:13:55.994Z,13.27
2023-02-19T10:16:25.347Z,13.24
2023-02-19T10:18:52.945Z,13.34
2023-02-19T10:21:24.900Z,13.36
2023-02-19T10:23:56.620Z,13.38
2023-02-19T10:26:24.257Z,13.40
2023-02-19T10:28:51.180Z,13.40
2023-02-19T10:31:22.168Z,13.36
2023-02-19T10:33:58.459Z,13.31
2023-02-19T10:36:41.216Z,13.30
2023-02-19T10:39:47.971Z,13.28
2023-02-19T10:42:19.056Z,13.32
2023-02-19T10:44:52.391Z,13.32
2023-02-19T10:47:23.747Z,13.35
2023-02-19T10:49:52.584Z,13.38
2023-02-19T10:52:34.196Z,13.37
2023-02-19T10:55:19.317Z,13.37
2023-02-19T10:57:46.796Z,13.42
2023-02-19T11:00:16.328Z,13.42
2023-02-19T11:02:44.852Z,13.42
2023-02-19T11:05:15.038Z,13.41
2023-02-19T11:07:56.788Z,13.37
2023-02-19T11:10:33.310Z,13.41
2023-02-19T11:13:06.846Z,13.45
2023-02-19T11:15:36.111Z,13.49
2023-02-19T11:18:11.718Z,13.49
2023-02-19T11:21:03.099Z,13.50
2023-02-19T11:23:37.706Z,13.53
2023-02-19T11:26:16.760Z,13.56
2023-02-19T11:28:44.138Z,13.63
2023-02-19T11:31:20.092Z,13.62
2023-02-19T11:33:56.738Z,13.65
2023-02-19T11:36:25.437Z,13.68
2023-02-19T11:38:52.571Z,13.74
2023-02-19T11:41:49.258Z,13.72
2023-02-19T11:44:35.797Z,13.77
2023-02-19T11:47:43.064Z,13.81
2023-02-19T11:51:13.428Z,13.79
2023-02-19T11:53:49.879Z,13.80
2023-02-19T11:56:34.868Z,13.80
2023-02-19T11:59:07.602Z,13.85
2023-02-19T12:02:03.702Z,13.82
2023-02-19T12:04:55.061Z,13.84
2023-02-19T12:07:57.245Z,13.86
2023-02-19T12:10:56.618Z,13.86
2023-02-19T12:13:29.148Z,13.87
2023-02-19T12:16:19.551Z,13.85
2023-02-19T12:19:23.827Z,13.84
2023-02-19T12:22:04.370Z,13.87
2023-02-19T12:24:59.951Z,13.87
2023-02-19T12:28:13.532Z,13.89
2023-02-19T12:30:53.263Z,13.92
2023-02-19T12:34:02.798Z,13.93
2023-02-19T12:37:01.017Z,13.92
2023-02-19T12:40:09.271Z,13.97
2023-02-19T12:43:01.949Z,14.03
2023-02-19T12:46:15.493Z,14.12
2023-02-19T12:48:48.666Z,14.23
2023-02-19T12:51:25.861Z,14.29
2023-02-19T12:54:17.070Z,14.39
2023-02-19T12:57:04.403Z,14.52
2023-02-19T12:59:59.985Z,14.65
2023-02-19T13:02:45.318Z,14.70
2023-02-19T13:05:26.257Z,14.71
2023-02-19T13:08:34.119Z,14.65
2023-02-19T13:11:22.280Z,14.67
2023-02-19T13:14:15.989Z,14.59
2023-02-19T13:16:48.461Z,14.57
2023-02-19T13:19:15.337Z,14.53
2023-02-19T13:22:03.006Z,14.48
2023-02-19T13:24:37.687Z,14.41
2023-02-19T13:27:28.251Z,14.35
2023-02-19T13:30:48.345Z,14.29
2023-02-19T13:33:37.282Z,14.28
2023-02-19T13:36:15.345Z,14.30
2023-02-19T13:38:48.454Z,14.32
2023-02-19T13:41:26.391Z,14.32
2023-02-19T13:44:12.527Z,14.31
2023-02-19T13:46:45.514Z,14.35
2023-02-19T13:49:27.776Z,14.36
2023-02-19T13:52:00.237Z,14.38
2023-02-19T13:54:39.878Z,14.39
2023-02-19T13:57:24.334Z,14.37
2023-02-19T13:59:55.694Z,14.43
2023-02-19T14:02:32.426Z,14.39
2023-02-19T14:05:11.487Z,14.40
2023-02-19T14:07:50.321Z,14.42
2023-02-19T14:10:45.894Z,14.43
2023-02-19T14:13:50.796Z,14.46
2023-02-19T14:16:37.709Z,14.46
2023-02-19T14:19:14.273Z,14.49
2023-02-19T14:21:43.667Z,14.54
2023-02-19T14:24:15.022Z,14.55
2023-02-19T14:26:42.359Z,14.62
2023-02-19T14:29:12.551Z,14.64
2023-02-19T14:31:40.383Z,14.67
2023-02-19T14:34:24.771Z,14.64
2023-02-19T14:37:01.068Z,14.67
2023-02-19T14:39:33.024Z,14.70
2023-02-19T14:42:04.619Z,14.70
2023-02-19T14:44:46.430Z,14.65
2023-02-19T14:47:23.375Z,14.60
2023-02-19T14:50:00.903Z,14.54
2023-02-19T14:52:40.803Z,14.49
2023-02-19T14:55:10.079Z,14.38
2023-02-19T14:57:41.839Z,14.39
2023-02-19T15:00:35.000Z,14.30
2023-02-19T15:03:02.594Z,14.34
2023-02-19T15:05:38.802Z,14.28
2023-02-19T15:08:15.450Z,14.28
2023-02-19T15:10:43.542Z,14.30
2023-02-19T15:13:17.273Z,14.27
2023-02-19T15:15:46.238Z,14.24
2023-02-19T15:18:23.995Z,14.21
2023-02-19T15:20:59.756Z,14.21
2023-02-19T15:23:30.301Z,14.23
2023-02-19T15:25:58.652Z,14.25
2023-02-19T15:28:25.331Z,14.25
2023-02-19T15:31:07.583Z,14.18
2023-02-19T15:33:35.268Z,14.21
2023-02-19T15:36:06.967Z,14.22
2023-02-19T15:38:34.544Z,14.25
2023-02-19T15:41:01.794Z,14.23
2023-02-19T15:43:39.278Z,14.16
2023-02-19T15:46:21.364Z,14.06
2023-02-19T15:49:16.855Z,13.98
2023-02-19T15:51:54.498Z,13.97
2023-02-19T15:54:36.154Z,13.96
2023-02-19T15:57:16.607Z,13.97
2023-02-19T15:59:54.741Z,13.97
2023-02-19T16:02:21.836Z,13.98
2023-02-19T16:04:48.645Z,13.94
2023-02-19T16:07:29.174Z,13.86
2023-02-19T16:10:17.671Z,13.81
2023-02-19T16:12:44.547Z,13.82
2023-02-19T16:15:15.023Z,13.75
2023-02-19T16:17:45.740Z,13.72
2023-02-19T16:20:32.579Z,13.63
2023-02-19T16:23:09.138Z,13.61
2023-02-19T16:25:46.197Z,13.58
2023-02-19T16:28:23.941Z,13.54
2023-02-19T16:31:06.690Z,13.48
2023-02-19T16:33:48.840Z,13.45
2023-02-19T16:36:33.284Z,13.39
2023-02-19T16:39:12.869Z,13.37
2023-02-19T16:41:39.502Z,13.37
2023-02-19T16:44:21.623Z,13.28
2023-02-19T16:46:54.145Z,13.27
2023-02-19T16:49:22.547Z,13.24
2023-02-19T16:51:49.856Z,13.23
2023-02-19T16:54:17.021Z,13.21
2023-02-19T16:56:43.786Z,13.20
2023-02-19T16:59:10.586Z,13.19
2023-02-19T17:01:38.191Z,13.19
2023-02-19T17:04:09.759Z,13.18
2023-02-19T17:06:39.700Z,13.18
2023-02-19T17:09:08.379Z,13.08
2023-02-19T17:11:36.066Z,13.14
2023-02-19T17:14:03.080Z,13.11
2023-02-19T17:16:39.397Z,13.06
2023-02-19T17:19:14.002Z,13.03
2023-02-19T17:21:40.809Z,13.05
2023-02-19T17:24:07.875Z,13.04
2023-02-19T17:26:34.718Z,13.03
2023-02-19T17:29:05.549Z,12.97
2023-02-19T17:31:33.850Z,12.98
2023-02-19T17:34:01.158Z,12.95
2023-02-19T17:36:30.986Z,12.94
2023-02-19T17:38:59.172Z,12.93
2023-02-19T17:41:26.876Z,12.90
2023-02-19T17:43:53.720Z,12.87
2023-02-19T17:46:25.470Z,12.82
2023-02-19T17:48:53.080Z,12.82
2023-02-19T17:51:20.500Z,12.83
2023-02-19T17:53:47.370Z,12.82
2023-02-19T17:56:20.937Z,12.78
2023-02-19T17:58:48.043Z,12.80
2023-02-19T18:01:15.800Z,12.81
2023-02-19T18:03:42.998Z,12.84
2023-02-19T18:06:09.899Z,12.84
2023-02-19T18:08:37.537Z,12.85
2023-02-19T18:11:06.586Z,12.83
2023-02-19T18:13:33.374Z,12.83
2023-02-19T18:16:00.147Z,12.82
2023-02-19T18:18:26.932Z,12.81
2023-02-19T18:20:53.708Z,12.82
2023-02-19T18:23:20.618Z,12.84
2023-02-19T18:25:47.464Z,12.85
2023-02-19T18:28:14.973Z,12.84
2023-02-19T18:30:41.877Z,12.87
2023-02-19T18:33:10.788Z,12.87
2023-02-19T18:35:38.397Z,12.89
2023-02-19T18:38:06.074Z,12.88
2023-02-19T18:40:32.873Z,12.91
2023-02-19T18:42:59.808Z,12.92
2023-02-19T18:45:29.484Z,12.91
2023-02-19T18:47:56.261Z,12.91
2023-02-19T18:50:23.078Z,12.92
2023-02-19T18:52:49.916Z,12.92
2023-02-19T18:55:16.817Z,12.93
2023-02-19T18:57:44.161Z,12.94
2023-02-19T19:00:25.488Z,12.94
2023-02-19T19:02:59.470Z,12.94
2023-02-19T19:05:27.087Z,12.97
2023-02-19T19:07:57.498Z,12.99
2023-02-19T19:10:24.663Z,13.01
2023-02-19T19:12:51.918Z,13.03
2023-02-19T19:15:19.026Z,13.03
2023-02-19T19:17:47.644Z,13.02
2023-02-19T19:20:20.316Z,13.03
2023-02-19T19:22:53.226Z,13.02
2023-02-19T19:25:21.550Z,13.02
2023-02-19T19:27:50.563Z,13.02
2023-02-19T19:30:19.818Z,12.99
2023-02-19T19:32:52.067Z,12.97
2023-02-19T19:35:20.307Z,12.98
2023-02-19T19:37:47.467Z,12.97
2023-02-19T19:40:17.120Z,12.96
2023-02-19T19:42:44.646Z,12.96
2023-02-19T19:45:11.944Z,12.97
2023-02-19T19:47:38.805Z,12.98
2023-02-19T19:50:06.190Z,12.99
2023-02-19T19:52:33.056Z,13.01
2023-02-19T19:54:59.827Z,13.04
2023-02-19T19:57:26.610Z,13.05
2023-02-19T19:59:53.492Z,13.07
2023-02-19T20:02:20.483Z,13.09
2023-02-19T20:04:47.371Z,13.12
2023-02-19T20:07:14.197Z,13.14
2023-02-19T20:09:41.274Z,13.15
2023-02-19T20:12:08.527Z,13.16
2023-02-19T20:14:35.344Z,13.17
2023-02-19T20:17:02.143Z,13.17
2023-02-19T20:19:28.957Z,13.17
2023-02-19T20:21:55.877Z,13.18
2023-02-19T20:24:28.348Z,13.16
2023-02-19T20:26:59.170Z,13.14
2023-02-19T20:29:30.592Z,13.12
2023-02-19T20:31:59.750Z,13.10
2023-02-19T20:34:27.244Z,13.09
2023-02-19T20:36:54.167Z,13.07
2023-02-19T20:39:21.776Z,13.08
2023-02-19T20:41:51.968Z,13.05
2023-02-19T20:44:19.308Z,13.07
2023-02-19T20:46:50.036Z,13.06
2023-02-19T20:49:22.678Z,13.08
2023-02-19T20:51:54.928Z,13.07
2023-02-19T20:54:25.390Z,13.07
2023-02-19T20:56:55.004Z,13.07
2023-02-19T20:59:25.235Z,13.07
2023-02-19T21:01:52.197Z,13.07
2023-02-19T21:04:19.662Z,13.04
2023-02-19T21:06:46.460Z,13.03
2023-02-19T21:09:13.740Z,13.01
2023-02-19T21:11:49.550Z,12.97
2023-02-19T21:14:17.128Z,12.97
2023-02-19T21:16:43.975Z,12.96
2023-02-19T21:19:10.903Z,12.94
2023-02-19T21:21:40.104Z,12.93
2023-02-19T21:24:07.419Z,12.88
2023-02-19T21:26:37.359Z,12.85
2023-02-19T21:29:05.371Z,12.79
2023-02-19T21:31:38.467Z,12.81
2023-02-19T21:34:07.988Z,12.78
2023-02-19T21:36:35.267Z,12.77
2023-02-19T21:39:03.482Z,12.75
2023-02-19T21:41:30.310Z,12.74
2023-02-19T21:43:57.618Z,12.74
2023-02-19T21:46:25.369Z,12.73
2023-02-19T21:48:54.633Z,12.71
2023-02-19T21:51:34.733Z,12.65
2023-02-19T21:54:03.002Z,12.66
2023-02-19T21:56:33.961Z,12.65
2023-02-19T21:59:02.872Z,12.65
2023-02-19T22:01:33.616Z,12.61
2023-02-19T22:04:01.044Z,12.61
2023-02-19T22:06:29.926Z,12.62
2023-02-19T22:08:57.825Z,12.63
2023-02-19T22:11:25.032Z,12.64
2023-02-19T22:13:51.838Z,12.64
2023-02-19T22:16:19.254Z,12.64
2023-02-19T22:18:55.909Z,12.62
2023-02-19T22:21:25.215Z,12.64
2023-02-19T22:23:53.683Z,12.65
2023-02-19T22:26:29.803Z,12.65
2023-02-19T22:28:59.121Z,12.68
2023-02-19T22:31:27.405Z,12.67
2023-02-19T22:33:55.763Z,12.69
2023-02-19T22:36:26.162Z,12.69
2023-02-19T22:38:53.721Z,12.71
2023-02-19T22:41:21.314Z,12.69
2023-02-19T22:43:49.330Z,12.70
2023-02-19T22:46:26.396Z,12.68
2023-02-19T22:48:53.166Z,12.74
2023-02-19T22:51:22.523Z,12.72
2023-02-19T22:53:58.265Z,12.69
2023-02-19T22:56:28.531Z,12.73
2023-02-19T22:58:56.999Z,12.73
2023-02-19T23:01:24.147Z,12.74
2023-02-19T23:03:57.069Z,12.72
2023-02-19T23:06:30.419Z,12.72
2023-02-19T23:09:01.777Z,12.72
2023-02-19T23:11:33.137Z,12.71
2023-02-19T23:14:00.159Z,12.73
2023-02-19T23:16:28.466Z,12.72
2023-02-19T23:18:55.694Z,12.73
2023-02-19T23:21:23.377Z,12.72
2023-02-19T23:23:50.545Z,12.71
2023-02-19T23:26:17.490Z,12.71
2023-02-19T23:28:45.858Z,12.68
2023-02-19T23:31:13.756Z,12.67
2023-02-19T23:33:41.169Z,12.69
2023-02-19T23:36:09.244Z,12.68
2023-02-19T23:38:36.300Z,12.70
2023-02-19T23:41:03.333Z,12.70
2023-02-19T23:43:30.203Z,12.67
2023-02-19T23:45:57.011Z,12.66
2023-02-19T23:48:23.797Z,12.64
2023-02-19T23:50:50.604Z,12.62
2023-02-19T23:53:17.390Z,12.60
2023-02-19T23:55:44.219Z,12.58
2023-02-19T23:58:11.007Z,12.55
